createdAt,value
2022-11-12T00:08:19.074Z,9.62
2022-11-12T00:18:40.817Z,9.59
2022-11-12T00:29:04.073Z,9.50
2022-11-12T00:39:25.932Z,9.53
2022-11-12T00:49:49.012Z,9.11
2022-11-12T01:00:17.393Z,9.41
2022-11-12T01:10:40.047Z,9.16
2022-11-12T01:21:03.024Z,8.94
2022-11-12T01:31:28.328Z,8.73
2022-11-12T01:41:50.235Z,8.79
2022-11-12T01:52:18.516Z,8.79
2022-11-12T02:02:41.478Z,8.81
2022-11-12T02:13:22.114Z,8.55
2022-11-12T02:23:45.263Z,8.68
2022-11-12T02:34:06.756Z,8.64
2022-11-12T02:44:31.298Z,8.63
2022-11-12T02:54:53.450Z,8.51
2022-11-12T03:05:16.279Z,8.60
2022-11-12T03:15:37.843Z,8.39
2022-11-12T03:26:04.836Z,8.17
2022-11-12T03:36:26.761Z,8.31
2022-11-12T03:46:50.042Z,8.42
2022-11-12T03:57:12.490Z,8.37
2022-11-12T04:07:52.922Z,8.19
2022-11-12T04:18:32.285Z,8.01
2022-11-12T04:29:12.934Z,7.97
2022-11-12T04:39:34.902Z,7.73
2022-11-12T04:49:57.936Z,7.81
2022-11-12T05:00:20.031Z,7.68
2022-11-12T05:10:43.214Z,7.80
2022-11-12T05:21:25.200Z,7.71
2022-11-12T05:31:48.666Z,7.69
2022-11-12T05:42:13.497Z,7.81
2022-11-12T05:52:37.384Z,7.69
2022-11-12T06:02:59.424Z,7.64
2022-11-12T06:13:24.232Z,7.56
2022-11-12T06:23:46.715Z,7.63
2022-11-12T06:34:10.061Z,7.67
2022-11-12T06:44:31.534Z,7.66
2022-11-12T06:54:54.960Z,7.70
2022-11-12T07:05:16.800Z,7.73
2022-11-12T07:15:39.954Z,7.61
2022-11-12T07:26:04.096Z,7.66
2022-11-12T07:36:28.018Z,7.61
2022-11-12T07:46:49.570Z,7.88
2022-11-12T07:57:12.930Z,8.11
2022-11-12T08:07:34.553Z,8.42
2022-11-12T08:17:57.523Z,8.68
2022-11-12T08:28:19.156Z,8.91
2022-11-12T08:38:43.059Z,9.05
2022-11-12T08:49:07.145Z,9.19
2022-11-12T08:59:30.439Z,9.37
2022-11-12T09:09:52.092Z,9.42
2022-11-12T09:20:15.807Z,9.53
2022-11-12T09:30:38.305Z,9.59
2022-11-12T09:41:16.249Z,9.73
2022-11-12T09:51:42.659Z,9.86
2022-11-12T10:02:26.273Z,10.05
2022-11-12T10:13:07.008Z,10.14
2022-11-12T10:23:42.368Z,10.32
2022-11-12T10:34:16.117Z,10.65
2022-11-12T10:44:40.859Z,10.96
2022-11-12T10:55:08.860Z,11.16
2022-11-12T11:05:35.629Z,11.23
2022-11-12T11:16:01.917Z,11.48
2022-11-12T11:26:33.950Z,11.78
2022-11-12T11:37:02.594Z,12.03
2022-11-12T11:47:57.686Z,12.43
2022-11-12T11:58:40.762Z,12.64
2022-11-12T12:09:24.904Z,12.87
2022-11-12T12:19:58.757Z,13.28
2022-11-12T12:30:24.917Z,13.32
2022-11-12T12:40:50.130Z,13.38
2022-11-12T12:51:14.288Z,13.54
2022-11-12T13:01:37.485Z,13.48
2022-11-12T13:12:18.228Z,13.55
2022-11-12T13:22:52.577Z,13.75
2022-11-12T13:33:27.208Z,13.90
2022-11-12T13:43:49.904Z,13.81
2022-11-12T13:54:36.239Z,13.81
2022-11-12T14:04:58.780Z,13.75
2022-11-12T14:15:43.947Z,13.77
2022-11-12T14:26:05.681Z,13.69
2022-11-12T14:36:30.770Z,13.56
2022-11-12T14:46:55.837Z,13.56
2022-11-12T14:57:24.169Z,13.52
2022-11-12T15:07:55.217Z,13.46
2022-11-12T15:18:20.580Z,13.31
2022-11-12T15:28:42.448Z,13.16
2022-11-12T15:39:14.473Z,13.10
2022-11-12T15:49:36.173Z,13.00
2022-11-12T16:00:07.865Z,12.87
2022-11-12T16:10:30.477Z,12.86
2022-11-12T16:20:53.636Z,12.83
2022-11-12T16:31:15.941Z,12.70
2022-11-12T16:41:39.068Z,12.58
2022-11-12T16:52:00.690Z,12.52
2022-11-12T17:02:23.600Z,12.52
2022-11-12T17:12:49.245Z,12.33
2022-11-12T17:23:12.097Z,12.31
2022-11-12T17:33:34.624Z,12.36
2022-11-12T17:43:58.172Z,12.26
2022-11-12T17:54:20.000Z,12.17
2022-11-12T18:04:43.065Z,12.21
2022-11-12T18:15:05.275Z,12.18
2022-11-12T18:25:28.895Z,12.04
2022-11-12T18:36:01.464Z,11.94
2022-11-12T18:46:25.056Z,11.91
2022-11-12T18:56:47.887Z,11.69
2022-11-12T19:07:10.618Z,11.85
2022-11-12T19:17:32.926Z,11.76
2022-11-12T19:27:56.055Z,11.49
2022-11-12T19:38:17.689Z,11.51
2022-11-12T19:48:40.976Z,11.47
2022-11-12T19:59:02.968Z,11.40
2022-11-12T20:09:26.021Z,11.30
2022-11-12T20:19:47.699Z,11.36
2022-11-12T20:30:11.989Z,11.34
2022-11-12T20:40:34.133Z,11.45
2022-11-12T20:51:22.544Z,11.20
2022-11-12T21:01:45.975Z,11.30
2022-11-12T21:12:09.111Z,11.28
2022-11-12T21:22:30.693Z,11.25
2022-11-12T21:32:53.631Z,11.28
2022-11-12T21:43:15.613Z,11.20
2022-11-12T21:53:39.518Z,11.16
2022-11-12T22:04:05.122Z,10.91
2022-11-12T22:14:28.413Z,10.93
2022-11-12T22:24:50.187Z,10.93
2022-11-12T22:35:13.401Z,10.81
2022-11-12T22:45:36.253Z,10.60
2022-11-12T22:56:04.145Z,10.48
2022-11-12T23:06:26.956Z,10.55
2022-11-12T23:16:50.050Z,10.54
2022-11-12T23:27:11.707Z,9.91
2022-11-12T23:37:34.870Z,9.85
2022-11-12T23:47:57.325Z,9.91
2022-11-12T23:58:20.253Z,10.06
